Salisbury, MD (21801)

7:18 AM EDT on August 30, 2016 (GMT -0400)
Pemberton | | Change Station

Elev 26 ft 38.36 °N, 75.62 °W | Updated 19 seconds ago

Clear
Clear
71.1 °F
Feels Like 71.1 °F
N
2.0
Wind Variable Wind from NNE
Gusts 3.6 mph

Today
High -- | Low -- °F
--% Chance of Precip.
Yesterday
High -- | Low -- °F
Precip. -- in
Pressure 30.12 in
Visibility 7.0 miles
Clouds Clear
Dew Point 67 °F
Humidity 88%
Rainfall 0.00 in
Snow Depth Not available.
6:30 AM 7:34 PM
Waning Crescent, 4% visible
METAR KSBY 301054Z 00000KT 7SM CLR 21/20 A3011 RMK AO2 SLP197 T02060200 PNO $
Pressure 30.12 in
Visibility 7.0 miles
Clouds Clear
Dew Point 67 °F
Humidity 88%
Rainfall 0.00 in
Snow Depth Not available.
6:30 AM 7:34 PM
Waning Crescent, 4% visible
METAR KSBY 301054Z 00000KT 7SM CLR 21/20 A3011 RMK AO2 SLP197 T02060200 PNO $

10-Day Weather Forecast

Almanac

Astronomy

Aug. 30, 2016 Rise Set
Actual Time
Civil Twilight
Nautical Twilight
Astronomical Twilight
Moon
Length of Visible Light
Length of Day
Tomorrow will be .
, % of the Moon is Illuminated

Today's Extremes

State Highs State Lows

Community

WunderPhotos

Upload Photos

1,935,804 photos uploaded!

WunderBlog® & News

Nearby

Air Quality

  Air Quality AQ Index Pollutant
Not available.

Snow Depth

Station Depth Elevation

Earthquake Activity

City Distance Mag. Time & Date
Minimum magnitude displayed is 2.5.

Coastal Water Temperatures

Place Temperature

Stations

Nearby Weather Stations

Station Location Temp. Windchill Dew Point Humidity Wind Precip. Elev Updated Type
                   

Watches & Warnings

There are currently no watches in effect.